Concordia, Missouri
Current Conditions -  °F | °C
As of 7:58 AM on Thursday 30 Oct 2014 (Local Time) from KSZL Reporting Station
Scattered Clouds Scattered Clouds  
Wind Chill: 41°   Ceiling: Unl
Heat Index: 46°   Visibility: 10mi
Dew Point: 40°   Wind: 13mph
Humidity: 78%   Direction: 220°SW
Pressure: 30.02"   Gusts: NA
Location:  38.98°N, 93.57°W
Report Text: KSZL 301258Z 22011KT 10SM SCT090 08/04 A3002 RMK AO2A SLP171 P0000 T00800043 $
Loading
Personal Weather Stations






























Interactive Weather Map
Tropical Storm Tracking
New forecast layout! Learn more

10-Day Weather Forecast

Advertisements
Track Severe Weather on mobile